首页
METAR-TAF:

METAR-TAF

机场 :

杰克逊维尔, 佛罗里达州, 美国

纬度: 30-20-10N, 经度: 081-30-53W, 海拔: 12米

当前天气观测

该预报发布于49分钟前的12:53 UTC
风速7节,风向北转东北
温度 14°C
湿度 100%
气压 1019 hPa
能見度: 8.0公里
阴天层高于300英尺
轻雾

METAR: KCRG 171253Z 03007KT 5SM BR OVC003 14/14 A3010 RMK AO2 SLP192 T01440144

时间: 08:42 (13:42 UTC)

预报

该预报发布于23分钟前的13:19 UTC
预报有效从17日的 13点(UTC)到 18日的 12点(UTC)
风速5节,风向北转东北
能見度: 4.8公里
阴天层高于300英尺
轻雾
从 17日的 1430点(UTC)
风速6节,风向东北
能見度: 9.7公里
多云层高于400英尺
轻雾
从 17日的 1600点(UTC)
风速8节,风向东北
能見度: 10公里
多云层高于2500英尺
从 18日的 0300点(UTC)
风速节,风向
能見度: 10公里
多云层高于400英尺
从 18日的 0900点(UTC)
风速节,风向
能見度: 1.6公里
阴天层高于300英尺
轻雾

TAF: KCRG 171319Z 1713/1812 03005KT 3SM BR OVC003 FM171430 05006KT 6SM BR BKN004 FM171600 05008KT P6SM BKN025 FM180300 00000KT P6SM BKN004 FM180900 00000KT 1SM BR OVC003

超过4000个机场的气象观测和天气预报(METAR&TAF报告)。

可查询的气象台以黄色和红色小点在地图上表示。

将鼠标移到小点上方,可查看气象台名称。

然后点击查看天气观测和预报。

如需切换地图:点击带黑十字的绿色按钮放大地图;点击带横线的绿色按钮缩小地图;或者点击绿色箭头查看邻近地区的地图。


METAR-TAF: